Terminal Aerodrome Forecast
Issued by NWS Sterling, VA

Current Version | Previous Version | Graphics & Text | Print | Product List | Glossary On
Versions: 1 2 3 4 5 6 7 8 9 10 11 12 13 14 15 16 17 18 19 20 21 22 23 24 25 26
924
FTUS41 KLWX 222102 AAA
TAFIAD
TAF AMD
KIAD 222102Z 2221/2324 17005KT P6SM VCSH BKN040
     FM230000 VRB04KT P6SM BKN050
     FM230500 34004KT P6SM SCT040
     FM231200 02006KT P6SM OVC035
     FM231700 06006KT P6SM OVC025=

USA.gov is the U.S. government's official web portal to all federal, state and local government web resources and services.